MUC | München Airways

 METAR UND TAF INFORMATION

METAR FOR EGLC
ADDS - METARS form results

(0319 UTC 24 January 2019)
Data provider http://aviationweather.gov/metar/data/
 
METAR text: EGLC 240250Z AUTO 22003KT 8000 NCD M00/M02 Q1010
Conditions at: EGLC (LONDON CITY AIRP, GB) observed 0250 UTC 24 January 2019
Temperature: 0.0°C (32°F)
Dewpoint: -2.0°C (28°F) [RH = 86%]
Pressure (altimeter): 29.82 inches Hg (1010.0 mb)
Winds: from the SW (220 degrees) at 3 MPH (3 knots; 1.5 m/s)
Visibility: 5 miles ( 8 km)
Ceiling: at least 12,000 feet AGL
Clouds: sky clear below 12,000 feet AGL
Weather: no significant weather observed at this time

METAR text: EGLC 240220Z AUTO 22003KT 9000 NCD 00/M01 Q1010
Conditions at: EGLC (LONDON CITY AIRP, GB) observed 0220 UTC 24 January 2019
Temperature: 0.0°C (32°F)
Dewpoint: -1.0°C (30°F) [RH = 93%]
Pressure (altimeter): 29.82 inches Hg (1010.0 mb)
Winds: from the SW (220 degrees) at 3 MPH (3 knots; 1.5 m/s)
Visibility: 6 miles ( 9 km)
Ceiling: at least 12,000 feet AGL
Clouds: sky clear below 12,000 feet AGL
Weather: no significant weather observed at this time

Forecast for: EGLC (LONDON CITY AIRP, GB)
Text: TAF EGLC 240203Z 2403/2412 25003KT 9000 FEW025
Forecast period: 0300 to 0900 UTC 24 January 2019
Forecast type: FROM: standard forecast or significant change
Winds: from the WSW (250 degrees) at 3 MPH (3 knots; 1.5 m/s)
Visibility: 6 miles (9 km)
Ceiling: at least 12,000 feet AGL
Clouds: few clouds at 2500 feet AGL
Weather: no significant weather forecast for this period
Text: PROB30 2403/2409 3000 BR
Forecast period: 0300 to 0900 UTC 24 January 2019
Forecast type: PROBABLE: 30 percent likelihood of the following during this time
Visibility: 1.86 miles (2.99 km)
Ceiling: unknown
Clouds: missing
Weather: BR  (mist)
Text: BECMG 2409/2412 9999 NSW
Forecast period: 0900 to 1200 UTC 24 January 2019
Forecast type: BECOMING: Conditions expected to become as follows by 1200 UTC 24 January 2019
Winds: from the WSW (250 degrees) at 3 MPH (3 knots; 1.5 m/s)
Visibility: 6 or more miles 10+ km)
Ceiling: at least 12,000 feet AGL
Clouds: few clouds at 2500 feet AGL
Weather: NSW  (no significant weather)

 FLUGHAFENKARTE

 RUNWAY INFORMATION
Runway 10 Runway length 4948 ft Runway width 98 ft
Runway elevation 16 ft Runway displaced threshold 358 ft Runway heading 93
Runway 28 Runway length 4948 ft Runway width 98 ft
Runway elevation 19 ft Runway displaced threshold 211 ft Runway heading 273

 AIRPORT FREQUENCIES
Type APP Name APP Frequency 132.7 MHZ
Type ATIS Name ATIS Frequency 136.35 MHZ
Type GND Name GND Frequency 121.825 MHZ
Type TWR Name TWR Frequency 118.075 MHZ

 AIRPORT NEAR NAVIGATION AIDS
Type NDB Name City Frequency 322 KHZ